Time,TemperatureF,DewpointF,PressureIn,WindDirection,WindDirectionDegrees,WindSpeedMPH,WindSpeedGustMPH,Humidity,HourlyPrecipIn,Conditions,Clouds,dailyrainin,SolarRadiationWatts/m^2,SoftwareType,DateUTC
2013-08-06 00:22:00,57.0,57.0,-100.00,ENE,61,0.0,2.0,100,0.00,,,0.04,0.000000,,2013-08-06 04:22:00,
2013-08-06 00:33:00,57.0,57.0,-100.00,ENE,61,0.0,2.0,100,0.00,,,0.04,0.000000,,2013-08-06 04:33:00,
2013-08-06 00:44:00,57.0,57.0,-100.00,ENE,61,0.0,2.0,100,0.00,,,0.04,0.000000,,2013-08-06 04:44:00,
2013-08-06 00:53:00,57.0,57.0,-100.00,ENE,61,0.0,2.0,100,0.00,,,0.04,0.000000,,2013-08-06 04:53:00,
2013-08-06 01:22:00,56.0,56.0,-100.00,East,88,0.0,2.0,100,0.00,,,0.04,0.000000,,2013-08-06 05:22:00,
2013-08-06 01:32:00,56.0,56.0,-100.00,East,88,0.0,2.0,100,0.00,,,0.04,0.000000,,2013-08-06 05:32:00,
2013-08-06 01:43:00,56.0,56.0,-100.00,East,88,0.0,2.0,100,0.00,,,0.04,0.000000,,2013-08-06 05:43:00,
2013-08-06 01:53:00,56.0,56.0,-100.00,East,88,0.0,2.0,100,0.00,,,0.04,0.000000,,2013-08-06 05:53:00,
2013-08-06 02:22:00,59.0,59.0,-100.00,South,187,2.0,6.0,100,0.00,,,0.04,0.000000,,2013-08-06 06:22:00,
2013-08-06 02:32:00,59.0,59.0,-100.00,South,187,2.0,6.0,100,0.00,,,0.04,0.000000,,2013-08-06 06:32:00,
2013-08-06 02:43:00,59.0,59.0,-100.00,South,187,2.0,6.0,100,0.00,,,0.04,0.000000,,2013-08-06 06:43:00,
2013-08-06 02:52:00,59.0,59.0,-100.00,South,187,2.0,6.0,100,0.00,,,0.04,0.000000,,2013-08-06 06:52:00,
2013-08-06 03:22:00,58.0,58.0,-100.00,SE,145,1.0,5.0,100,0.00,,,0.04,0.000000,,2013-08-06 07:22:00,
2013-08-06 03:32:00,58.0,58.0,-100.00,SE,145,1.0,5.0,100,0.00,,,0.04,0.000000,,2013-08-06 07:32:00,
2013-08-06 03:43:00,58.0,58.0,-100.00,SE,145,1.0,5.0,100,0.00,,,0.04,0.000000,,2013-08-06 07:43:00,
2013-08-06 03:53:00,58.0,58.0,-100.00,SE,145,1.0,5.0,100,0.00,,,0.04,0.000000,,2013-08-06 07:53:00,
2013-08-06 04:33:00,56.0,56.0,-100.00,ENE,72,0.0,2.0,100,0.00,,,0.04,0.000000,,2013-08-06 08:33:00,
2013-08-06 04:43:00,56.0,56.0,-100.00,ENE,72,0.0,2.0,100,0.00,,,0.04,0.000000,,2013-08-06 08:43:00,
2013-08-06 04:52:00,56.0,56.0,-100.00,ENE,72,0.0,2.0,100,0.00,,,0.04,0.000000,,2013-08-06 08:52:00,
2013-08-06 05:22:00,57.0,57.0,-100.00,NW,318,0.0,3.0,100,0.00,,,0.04,0.000000,,2013-08-06 09:22:00,
2013-08-06 05:32:00,57.0,57.0,-100.00,NW,318,0.0,3.0,100,0.00,,,0.04,0.000000,,2013-08-06 09:32:00,
2013-08-06 05:43:00,57.0,57.0,-100.00,NW,318,0.0,3.0,100,0.00,,,0.04,0.000000,,2013-08-06 09:43:00,
2013-08-06 05:52:00,57.0,57.0,-100.00,NW,318,0.0,3.0,100,0.00,,,0.04,0.000000,,2013-08-06 09:52:00,
2013-08-06 06:22:00,60.0,60.0,-100.00,SSE,154,2.0,3.0,100,0.00,,,0.04,0.000000,,2013-08-06 10:22:00,
2013-08-06 06:32:00,60.0,60.0,-100.00,SSE,154,2.0,3.0,100,0.00,,,0.04,0.000000,,2013-08-06 10:32:00,
2013-08-06 06:43:00,60.0,60.0,-100.00,SSE,154,2.0,3.0,100,0.00,,,0.04,0.000000,,2013-08-06 10:43:00,
2013-08-06 06:52:00,60.0,60.0,-100.00,SSE,154,2.0,3.0,100,0.00,,,0.04,0.000000,,2013-08-06 10:52:00,
2013-08-06 07:22:00,60.0,60.0,-100.00,SW,222,1.0,4.0,100,0.00,,,0.04,1.000000,,2013-08-06 11:22:00,
2013-08-06 07:32:00,60.0,60.0,-100.00,SW,222,1.0,4.0,100,0.00,,,0.04,1.000000,,2013-08-06 11:32:00,
2013-08-06 07:43:00,60.0,60.0,-100.00,SW,222,1.0,4.0,100,0.00,,,0.04,1.000000,,2013-08-06 11:43:00,
2013-08-06 07:53:00,60.0,60.0,-100.00,SW,222,1.0,4.0,100,0.00,,,0.04,1.000000,,2013-08-06 11:53:00,
2013-08-06 08:22:00,62.0,62.0,-100.00,South,186,3.0,5.0,100,0.00,,,0.04,55.000000,,2013-08-06 12:22:00,
2013-08-06 08:32:00,62.0,62.0,-100.00,South,186,3.0,5.0,100,0.00,,,0.04,55.000000,,2013-08-06 12:32:00,
2013-08-06 08:43:00,62.0,62.0,-100.00,South,186,3.0,5.0,100,0.00,,,0.04,55.000000,,2013-08-06 12:43:00,
2013-08-06 08:52:00,62.0,62.0,-100.00,South,186,3.0,5.0,100,0.00,,,0.04,55.000000,,2013-08-06 12:52:00,
2013-08-06 09:22:00,65.0,65.0,-100.00,SSW,201,3.0,7.0,100,0.00,,,0.04,159.000000,,2013-08-06 13:22:00,
2013-08-06 09:32:00,65.0,65.0,-100.00,SSW,201,3.0,7.0,100,0.00,,,0.04,159.000000,,2013-08-06 13:32:00,
2013-08-06 09:42:00,65.0,65.0,-100.00,SSW,201,3.0,7.0,100,0.00,,,0.04,159.000000,,2013-08-06 13:42:00,
2013-08-06 09:53:00,65.0,65.0,-100.00,SSW,201,3.0,7.0,100,0.00,,,0.04,159.000000,,2013-08-06 13:53:00,
2013-08-06 10:22:00,69.0,66.0,-100.00,SSW,202,4.0,8.0,89,0.00,,,0.04,342.000000,,2013-08-06 14:22:00,
2013-08-06 10:32:00,69.0,66.0,-100.00,SSW,202,4.0,8.0,89,0.00,,,0.04,342.000000,,2013-08-06 14:32:00,
2013-08-06 10:42:00,69.0,66.0,-100.00,SSW,202,4.0,8.0,89,0.00,,,0.04,342.000000,,2013-08-06 14:42:00,
2013-08-06 10:53:00,69.0,66.0,-100.00,SSW,202,4.0,8.0,89,0.00,,,0.04,342.000000,,2013-08-06 14:53:00,
2013-08-06 11:22:00,72.0,68.0,-100.00,SW,228,4.0,9.0,86,0.00,,,0.04,400.000000,,2013-08-06 15:22:00,
2013-08-06 11:33:00,72.0,68.0,-100.00,SW,228,4.0,9.0,86,0.00,,,0.04,400.000000,,2013-08-06 15:33:00,
2013-08-06 11:44:00,72.0,68.0,-100.00,SW,228,4.0,9.0,86,0.00,,,0.04,400.000000,,2013-08-06 15:44:00,
2013-08-06 11:52:00,72.0,68.0,-100.00,SW,228,4.0,9.0,86,0.00,,,0.04,400.000000,,2013-08-06 15:52:00,
2013-08-06 12:22:00,72.0,62.0,-100.00,NW,308,5.0,14.0,71,0.00,,,0.04,613.000000,,2013-08-06 16:22:00,
2013-08-06 12:32:00,72.0,62.0,-100.00,NW,308,5.0,14.0,71,0.00,,,0.04,613.000000,,2013-08-06 16:32:00,
2013-08-06 12:43:00,72.0,62.0,-100.00,NW,308,5.0,14.0,71,0.00,,,0.04,613.000000,,2013-08-06 16:43:00,
2013-08-06 12:52:00,72.0,62.0,-100.00,NW,308,5.0,14.0,71,0.00,,,0.04,613.000000,,2013-08-06 16:52:00,
2013-08-06 13:21:00,71.0,63.0,-100.00,West,263,2.0,10.0,77,0.00,,,0.04,504.000000,,2013-08-06 17:21:00,
2013-08-06 13:32:00,71.0,63.0,-100.00,West,263,2.0,10.0,77,0.00,,,0.04,504.000000,,2013-08-06 17:32:00,
2013-08-06 13:44:00,71.0,63.0,-100.00,West,263,2.0,10.0,77,0.00,,,0.04,504.000000,,2013-08-06 17:44:00,
2013-08-06 13:52:00,71.0,63.0,-100.00,West,263,2.0,10.0,77,0.00,,,0.04,504.000000,,2013-08-06 17:52:00,
2013-08-06 14:22:00,74.0,64.0,-100.00,SW,233,4.0,10.0,70,0.00,,,0.04,647.000000,,2013-08-06 18:22:00,
2013-08-06 14:32:00,74.0,64.0,-100.00,SW,233,4.0,10.0,70,0.00,,,0.04,647.000000,,2013-08-06 18:32:00,
2013-08-06 14:43:00,74.0,64.0,-100.00,SW,233,4.0,10.0,70,0.00,,,0.04,647.000000,,2013-08-06 18:43:00,
2013-08-06 14:52:00,74.0,64.0,-100.00,SW,233,4.0,10.0,70,0.00,,,0.04,647.000000,,2013-08-06 18:52:00,
2013-08-06 15:21:00,76.0,64.0,-100.00,WNW,289,4.0,8.0,67,0.00,,,0.01,623.000000,,2013-08-06 19:21:00,
2013-08-06 15:32:00,76.0,64.0,-100.00,WNW,289,4.0,8.0,67,0.00,,,0.01,623.000000,,2013-08-06 19:32:00,
2013-08-06 15:42:00,76.0,64.0,-100.00,WNW,289,4.0,8.0,67,0.00,,,0.01,623.000000,,2013-08-06 19:42:00,
2013-08-06 15:52:00,76.0,64.0,-100.00,WNW,289,4.0,8.0,67,0.00,,,0.01,623.000000,,2013-08-06 19:52:00,
2013-08-06 16:22:00,74.0,64.0,-100.00,NNW,343,4.0,9.0,70,0.00,,,0.01,498.000000,,2013-08-06 20:22:00,
2013-08-06 16:32:00,74.0,64.0,-100.00,NNW,343,4.0,9.0,70,0.00,,,0.01,498.000000,,2013-08-06 20:32:00,
2013-08-06 16:44:00,74.0,64.0,-100.00,NNW,343,4.0,9.0,70,0.00,,,0.01,498.000000,,2013-08-06 20:44:00,
2013-08-06 16:52:00,74.0,64.0,-100.00,NNW,343,4.0,9.0,70,0.00,,,0.01,498.000000,,2013-08-06 20:52:00,
2013-08-06 17:22:00,72.0,61.0,-100.00,NNW,336,4.0,11.0,69,0.00,,,0.01,430.000000,,2013-08-06 21:22:00,
2013-08-06 17:32:00,72.0,61.0,-100.00,NNW,336,4.0,11.0,69,0.00,,,0.01,430.000000,,2013-08-06 21:32:00,
2013-08-06 17:43:00,72.0,61.0,-100.00,NNW,336,4.0,11.0,69,0.00,,,0.01,430.000000,,2013-08-06 21:43:00,
2013-08-06 17:52:00,72.0,61.0,-100.00,NNW,336,4.0,11.0,69,0.00,,,0.01,430.000000,,2013-08-06 21:52:00,
2013-08-06 18:22:00,70.0,61.0,-100.00,NNW,339,4.0,7.0,74,0.00,,,0.01,273.000000,,2013-08-06 22:22:00,
2013-08-06 18:32:00,70.0,61.0,-100.00,NNW,339,4.0,7.0,74,0.00,,,0.01,273.000000,,2013-08-06 22:32:00,
2013-08-06 18:43:00,70.0,61.0,-100.00,NNW,339,4.0,7.0,74,0.00,,,0.01,273.000000,,2013-08-06 22:43:00,
2013-08-06 18:52:00,70.0,61.0,-100.00,NNW,339,4.0,7.0,74,0.00,,,0.01,273.000000,,2013-08-06 22:52:00,
2013-08-06 19:22:00,68.0,61.0,-100.00,North,357,3.0,6.0,77,0.00,,,0.01,110.000000,,2013-08-06 23:22:00,
2013-08-06 19:32:00,68.0,61.0,-100.00,North,357,3.0,6.0,77,0.00,,,0.01,110.000000,,2013-08-06 23:32:00,
2013-08-06 19:43:00,68.0,61.0,-100.00,North,357,3.0,6.0,77,0.00,,,0.01,110.000000,,2013-08-06 23:43:00,
2013-08-06 19:52:00,68.0,61.0,-100.00,North,357,3.0,6.0,77,0.00,,,0.01,110.000000,,2013-08-06 23:52:00,
2013-08-06 20:21:00,66.0,59.0,-100.00,North,2,2.0,7.0,78,0.00,,,0.00,75.000000,,2013-08-07 00:21:00,
2013-08-06 20:32:00,66.0,59.0,-100.00,North,2,2.0,7.0,78,0.00,,,0.00,75.000000,,2013-08-07 00:32:00,
2013-08-06 20:43:00,66.0,59.0,-100.00,North,2,2.0,7.0,78,0.00,,,0.00,75.000000,,2013-08-07 00:43:00,
2013-08-06 20:52:00,66.0,59.0,-100.00,North,2,2.0,7.0,78,0.00,,,0.00,75.000000,,2013-08-07 00:52:00,
2013-08-06 21:22:00,63.0,60.0,-100.00,North,6,0.0,4.0,89,0.00,,,0.00,39.000000,,2013-08-07 01:22:00,
2013-08-06 21:32:00,63.0,60.0,-100.00,North,6,0.0,4.0,89,0.00,,,0.00,39.000000,,2013-08-07 01:32:00,
2013-08-06 21:43:00,63.0,60.0,-100.00,North,6,0.0,4.0,89,0.00,,,0.00,39.000000,,2013-08-07 01:43:00,
2013-08-06 21:52:00,63.0,60.0,-100.00,North,6,0.0,4.0,89,0.00,,,0.00,39.000000,,2013-08-07 01:52:00,
2013-08-06 22:22:00,59.0,58.0,-100.00,NNW,346,0.0,0.0,98,0.00,,,0.00,4.000000,,2013-08-07 02:22:00,
2013-08-06 22:33:00,59.0,58.0,-100.00,NNW,346,0.0,0.0,98,0.00,,,0.00,4.000000,,2013-08-07 02:33:00,
2013-08-06 22:43:00,59.0,58.0,-100.00,NNW,346,0.0,0.0,98,0.00,,,0.00,4.000000,,2013-08-07 02:43:00,
2013-08-06 22:53:00,59.0,58.0,-100.00,NNW,346,0.0,0.0,98,0.00,,,0.00,4.000000,,2013-08-07 02:53:00,
2013-08-06 23:23:00,58.0,58.0,-100.00,North,11,0.0,0.0,100,0.00,,,0.00,0.000000,,2013-08-07 03:23:00,
2013-08-06 23:32:00,58.0,58.0,-100.00,North,11,0.0,0.0,100,0.00,,,0.00,0.000000,,2013-08-07 03:32:00,
2013-08-06 23:43:00,58.0,58.0,-100.00,North,11,0.0,0.0,100,0.00,,,0.00,0.000000,,2013-08-07 03:43:00,
2013-08-06 23:52:00,58.0,58.0,-100.00,North,11,0.0,0.0,100,0.00,,,0.00,0.000000,,2013-08-07 03:52:00,